Time;durP1;ratioP1;P1;durP2;ratioP2;P2;SDS_P1;SDS_P2;PMS_P1;PMS_P2;Temp;Humidity;BMP_temperature;BMP_pressure;BME280_temperature;BME280_humidity;BME280_pressure;Samples;Min_cycle;Max_cycle;Signal;HPM_P1;HPM_P2
2021/11/26 00:00:57;;;;;;;52.87;18.13;;;5.00;99.90;;;;;;6693917;88;20264;-78
2021/11/26 00:10:58;;;;;;;49.45;17.45;;;5.10;99.90;;;;;;6706168;88;20493;-78
2021/11/26 00:21:00;;;;;;;43.65;17.83;;;5.30;99.90;;;;;;6708131;88;20376;-77
2021/11/26 00:31:00;;;;;;;45.75;17.08;;;5.30;99.90;;;;;;6698157;88;20236;-78
2021/11/26 00:41:01;;;;;;;45.30;17.50;;;5.10;99.90;;;;;;6707596;88;20216;-77
2021/11/26 00:51:01;;;;;;;50.03;18.40;;;5.50;99.90;;;;;;6705756;88;20331;-77
2021/11/26 01:01:02;;;;;;;53.65;17.98;;;5.30;99.90;;;;;;6700487;88;20199;-77
2021/11/26 01:11:03;;;;;;;57.00;18.48;;;5.30;99.90;;;;;;6707560;88;20259;-77
2021/11/26 01:21:06;;;;;;;51.78;18.65;;;5.20;99.90;;;;;;6713393;88;20708;-78
2021/11/26 01:41:11;;;;;;;51.28;18.05;;;5.10;99.90;;;;;;6743672;88;20727;-77
2021/11/26 01:51:12;;;;;;;53.78;17.42;;;4.80;99.90;;;;;;6740885;88;20664;-78
2021/11/26 02:01:13;;;;;;;56.20;18.83;;;4.90;99.90;;;;;;6739567;88;20192;-79
2021/11/26 02:11:13;;;;;;;53.58;18.42;;;4.80;99.90;;;;;;6739583;88;20239;-78
2021/11/26 02:21:16;;;;;;;47.20;17.48;;;4.60;99.90;;;;;;6739963;88;20201;-79
2021/11/26 02:31:17;;;;;;;45.63;15.38;;;4.70;99.90;;;;;;6739939;88;20594;-78
2021/11/26 02:41:17;;;;;;;41.20;14.32;;;4.80;99.90;;;;;;6740179;88;20179;-78
2021/11/26 02:51:18;;;;;;;37.15;11.25;;;4.50;99.90;;;;;;6736193;88;20195;-78
2021/11/26 03:01:18;;;;;;;26.13;8.33;;;4.40;99.90;;;;;;6739604;88;20517;-78
2021/11/26 03:11:19;;;;;;;20.92;7.75;;;4.30;99.90;;;;;;6739479;88;20917;-78
2021/11/26 03:21:20;;;;;;;26.37;8.32;;;4.40;99.90;;;;;;6739539;88;20287;-78
2021/11/26 03:31:20;;;;;;;28.60;8.70;;;4.30;99.90;;;;;;6723835;88;20738;-78
2021/11/26 03:41:21;;;;;;;25.77;7.32;;;4.10;99.90;;;;;;6723829;88;20263;-78
2021/11/26 03:51:22;;;;;;;16.42;6.03;;;4.00;99.90;;;;;;6722015;88;20202;-78
2021/11/26 04:01:22;;;;;;;16.77;5.37;;;4.10;99.90;;;;;;6723387;88;20274;-79
2021/11/26 04:11:23;;;;;;;14.63;5.45;;;4.20;99.90;;;;;;6724193;88;20534;-78
2021/11/26 04:21:23;;;;;;;15.98;5.18;;;3.90;99.90;;;;;;6724733;88;20293;-77
2021/11/26 04:31:24;;;;;;;14.93;4.80;;;4.00;99.90;;;;;;6730572;88;20200;-78
2021/11/26 04:41:24;;;;;;;13.68;4.75;;;4.10;99.90;;;;;;6741561;88;20227;-79
2021/11/26 04:51:25;;;;;;;14.32;4.20;;;4.30;99.90;;;;;;6727078;88;20275;-78
2021/11/26 05:01:26;;;;;;;12.82;4.15;;;4.40;99.90;;;;;;6721482;88;20726;-78
2021/11/26 05:11:27;;;;;;;16.08;3.67;;;4.50;99.90;;;;;;6725102;88;20349;-78
2021/11/26 05:21:27;;;;;;;11.23;3.58;;;4.40;99.90;;;;;;6724492;88;20228;-78
2021/11/26 05:31:29;;;;;;;7.90;3.20;;;4.20;99.90;;;;;;6735749;88;20310;-79
2021/11/26 05:41:30;;;;;;;9.27;3.28;;;4.40;99.90;;;;;;6738673;88;20662;-77
2021/11/26 05:51:30;;;;;;;10.90;3.35;;;4.30;99.90;;;;;;6737916;88;20211;-78
2021/11/26 06:01:31;;;;;;;11.15;3.60;;;4.30;99.90;;;;;;6734511;88;20212;-78
2021/11/26 06:11:31;;;;;;;10.85;3.25;;;4.50;99.90;;;;;;6729453;88;20354;-77
2021/11/26 06:21:32;;;;;;;7.93;3.28;;;4.40;99.90;;;;;;6725760;88;20681;-78
2021/11/26 06:31:33;;;;;;;8.98;3.20;;;4.50;99.90;;;;;;6728586;88;20193;-79
2021/11/26 06:41:33;;;;;;;8.75;3.03;;;4.50;99.90;;;;;;6731604;88;20213;-78
2021/11/26 06:51:34;;;;;;;9.18;3.62;;;4.50;99.90;;;;;;6729219;88;20246;-79
2021/11/26 07:01:34;;;;;;;11.32;3.80;;;4.60;99.90;;;;;;6734527;88;20210;-78
2021/11/26 07:11:35;;;;;;;9.32;3.60;;;4.50;99.90;;;;;;6741481;88;20225;-81
2021/11/26 07:21:35;;;;;;;9.35;3.92;;;4.60;99.90;;;;;;6742553;88;20185;-78
2021/11/26 07:31:36;;;;;;;12.68;4.22;;;4.40;99.90;;;;;;6735932;77;20837;-77
2021/11/26 07:41:37;;;;;;;9.93;4.45;;;4.20;99.90;;;;;;6747422;88;20247;-78
2021/11/26 07:51:37;;;;;;;15.20;4.75;;;4.10;99.90;;;;;;6743916;88;20282;-78
2021/11/26 08:01:38;;;;;;;14.25;4.97;;;4.10;99.90;;;;;;6747341;88;20192;-78
2021/11/26 08:11:38;;;;;;;15.75;5.37;;;4.10;99.90;;;;;;6742614;88;20213;-78
2021/11/26 08:21:39;;;;;;;13.68;5.72;;;4.10;99.90;;;;;;6744375;88;20200;-78
2021/11/26 08:31:40;;;;;;;11.77;5.03;;;4.20;99.90;;;;;;6736242;88;20211;-78
2021/11/26 08:41:41;;;;;;;11.80;4.82;;;4.50;99.90;;;;;;6749967;88;20174;-78
2021/11/26 08:51:44;;;;;;;16.60;6.12;;;4.50;99.90;;;;;;6750008;88;20512;-77
2021/11/26 09:01:44;;;;;;;15.95;5.65;;;4.30;99.90;;;;;;6749240;88;20222;-78
2021/11/26 09:11:45;;;;;;;16.95;6.62;;;4.40;99.90;;;;;;6748066;88;20194;-77
2021/11/26 09:21:46;;;;;;;16.27;5.93;;;4.50;99.90;;;;;;6740087;88;20198;-77
2021/11/26 09:31:46;;;;;;;16.60;5.53;;;4.60;99.90;;;;;;6736698;88;20189;-77
2021/11/26 09:41:48;;;;;;;14.23;5.65;;;4.70;99.90;;;;;;6751928;88;20222;-77
2021/11/26 09:51:50;;;;;;;13.00;5.25;;;4.90;99.90;;;;;;6739338;88;20206;-77
2021/11/26 10:01:50;;;;;;;17.67;5.18;;;4.90;99.90;;;;;;6737367;88;20215;-77
2021/11/26 10:11:56;;;;;;;12.50;4.68;;;5.00;99.90;;;;;;6732985;88;20197;-77
2021/11/26 10:21:57;;;;;;;12.20;4.43;;;5.30;99.90;;;;;;6726998;88;20193;-77
2021/11/26 10:32:12;;;;;;;14.40;3.87;;;5.40;99.90;;;;;;6725517;88;20227;-76
2021/11/26 10:42:24;;;;;;;9.65;3.53;;;5.60;99.90;;;;;;6725245;88;20324;-76
2021/11/26 10:52:49;;;;;;;8.65;3.20;;;5.40;99.90;;;;;;6719117;88;20201;-76
2021/11/26 11:02:48;;;;;;;8.55;2.87;;;5.50;99.90;;;;;;6719509;88;20377;-75
2021/11/26 11:12:48;;;;;;;6.32;2.37;;;5.50;99.90;;;;;;6715355;88;20215;-75
2021/11/26 11:22:49;;;;;;;8.45;2.30;;;5.70;99.90;;;;;;6715863;88;20684;-75
2021/11/26 11:32:50;;;;;;;3.35;1.50;;;5.80;99.90;;;;;;6716023;88;20204;-75
2021/11/26 11:42:50;;;;;;;7.95;1.92;;;5.90;99.90;;;;;;6719219;88;20185;-76
2021/11/26 11:52:57;;;;;;;6.85;1.58;;;5.90;99.90;;;;;;6720572;88;20296;-74
2021/11/26 12:03:10;;;;;;;6.80;1.60;;;5.80;99.90;;;;;;6725948;88;20297;-76
2021/11/26 12:13:24;;;;;;;6.72;1.52;;;5.90;99.90;;;;;;6728188;88;20347;-77
2021/11/26 12:23:29;;;;;;;10.70;1.70;;;6.00;99.90;;;;;;6731380;88;20197;-77
2021/11/26 12:33:30;;;;;;;4.75;1.33;;;6.10;99.90;;;;;;6727860;88;20179;-77
2021/11/26 12:43:49;;;;;;;4.65;1.30;;;6.20;99.90;;;;;;6727632;88;20196;-77
2021/11/26 12:53:49;;;;;;;3.33;1.17;;;6.20;99.90;;;;;;6727631;88;20180;-77
2021/11/26 13:03:50;;;;;;;6.10;1.27;;;6.30;99.90;;;;;;6728225;88;20209;-76
2021/11/26 13:14:03;;;;;;;5.07;1.10;;;6.10;99.90;;;;;;6732854;88;20499;-79
2021/11/26 13:24:06;;;;;;;6.50;1.60;;;6.00;99.90;;;;;;6736764;88;20177;-77
2021/11/26 13:34:06;;;;;;;5.82;1.70;;;5.80;99.90;;;;;;6723987;88;20187;-77
2021/11/26 13:44:18;;;;;;;4.40;1.23;;;5.80;99.90;;;;;;6715787;88;20235;-77
2021/11/26 13:54:21;;;;;;;5.65;1.90;;;5.80;99.90;;;;;;6717352;88;20211;-77
2021/11/26 14:04:23;;;;;;;4.28;1.27;;;5.70;99.90;;;;;;6715655;88;20186;-77
2021/11/26 14:14:25;;;;;;;4.82;1.48;;;5.70;99.90;;;;;;6715295;88;20658;-77
2021/11/26 14:24:42;;;;;;;5.65;1.48;;;5.60;99.90;;;;;;6710017;88;20263;-77
2021/11/26 14:34:46;;;;;;;4.33;1.23;;;5.60;99.90;;;;;;6713951;88;20194;-77
2021/11/26 14:44:50;;;;;;;4.50;1.35;;;5.50;99.90;;;;;;6714883;88;20211;-77
2021/11/26 14:54:50;;;;;;;8.60;1.98;;;5.30;99.90;;;;;;6728795;88;20194;-77
2021/11/26 15:04:51;;;;;;;3.72;1.35;;;5.20;99.90;;;;;;6715153;88;20206;-76
2021/11/26 15:14:52;;;;;;;4.68;1.50;;;5.30;99.90;;;;;;6730621;88;20192;-77
2021/11/26 15:24:52;;;;;;;6.80;1.83;;;5.30;99.90;;;;;;6731012;88;20196;-77
2021/11/26 15:34:53;;;;;;;6.22;1.80;;;5.30;99.90;;;;;;6729928;88;20287;-77
2021/11/26 15:44:53;;;;;;;4.55;1.67;;;5.20;99.90;;;;;;6732466;88;20378;-76
2021/11/26 15:54:54;;;;;;;4.68;1.62;;;5.20;99.90;;;;;;6725724;88;20348;-74
2021/11/26 16:04:54;;;;;;;2.22;0.93;;;5.20;99.90;;;;;;6733231;88;20687;-77
2021/11/26 16:14:55;;;;;;;6.70;1.37;;;5.10;99.90;;;;;;6732272;88;20301;-76
2021/11/26 16:24:56;;;;;;;6.70;1.67;;;5.10;99.90;;;;;;6728741;88;20209;-77
2021/11/26 16:35:04;;;;;;;7.40;1.52;;;5.10;99.90;;;;;;6695460;88;20198;-76
2021/11/26 16:45:05;;;;;;;3.80;1.58;;;5.10;99.90;;;;;;6694137;88;20816;-77
2021/11/26 16:55:06;;;;;;;6.15;1.90;;;5.10;99.90;;;;;;6727723;88;20241;-77
2021/11/26 17:05:07;;;;;;;5.22;1.75;;;5.10;99.90;;;;;;6735383;88;20628;-76
2021/11/26 17:15:08;;;;;;;4.68;2.12;;;5.10;99.90;;;;;;6740473;88;20694;-77
2021/11/26 17:25:09;;;;;;;5.43;2.37;;;5.10;99.90;;;;;;6741821;88;20237;-77
2021/11/26 17:35:09;;;;;;;4.37;2.25;;;5.20;99.90;;;;;;6732183;88;20290;-78
2021/11/26 17:45:10;;;;;;;6.75;2.70;;;5.30;99.90;;;;;;6743851;88;20190;-76
2021/11/26 17:55:11;;;;;;;3.00;1.67;;;5.30;99.90;;;;;;6746571;88;20248;-77
2021/11/26 18:05:14;;;;;;;4.40;1.60;;;5.30;99.90;;;;;;6729298;88;20964;-76
2021/11/26 18:15:16;;;;;;;2.90;1.42;;;5.20;99.90;;;;;;6743841;88;20199;-77
2021/11/26 18:25:17;;;;;;;2.50;1.20;;;5.30;99.90;;;;;;6747053;88;20184;-77
2021/11/26 18:35:18;;;;;;;3.50;1.40;;;5.20;99.90;;;;;;6742169;88;20190;-77
2021/11/26 18:45:18;;;;;;;2.65;1.20;;;5.20;99.90;;;;;;6732115;88;20212;-78
2021/11/26 18:55:19;;;;;;;2.13;0.90;;;5.20;99.90;;;;;;6738829;88;20346;-78
2021/11/26 19:05:25;;;;;;;2.28;0.80;;;5.20;99.90;;;;;;6736440;88;20594;-78
2021/11/26 19:15:26;;;;;;;1.87;0.60;;;5.00;99.90;;;;;;6739825;88;20678;-78
2021/11/26 19:25:30;;;;;;;2.00;0.90;;;5.10;99.90;;;;;;6729556;88;20198;-78
2021/11/26 19:35:30;;;;;;;1.62;0.57;;;5.00;99.90;;;;;;6735025;88;21075;-79
2021/11/26 19:45:31;;;;;;;1.40;0.70;;;5.00;99.90;;;;;;6736010;88;20180;-78
2021/11/26 19:55:33;;;;;;;1.33;0.60;;;5.00;99.90;;;;;;6737412;88;20695;-79
2021/11/26 20:05:34;;;;;;;1.20;0.68;;;5.00;99.90;;;;;;6732623;88;20214;-77
2021/11/26 20:15:34;;;;;;;1.25;0.50;;;5.00;99.90;;;;;;6734201;88;20178;-77
2021/11/26 20:25:35;;;;;;;1.10;0.40;;;4.90;99.90;;;;;;6739790;88;20322;-79
2021/11/26 20:35:35;;;;;;;1.57;0.53;;;4.90;99.90;;;;;;6744810;88;20514;-81
2021/11/26 20:45:37;;;;;;;0.77;0.30;;;4.80;99.90;;;;;;6738433;88;21233;-79
2021/11/26 20:55:37;;;;;;;1.15;0.40;;;4.70;99.90;;;;;;6741773;88;20185;-79
2021/11/26 21:05:39;;;;;;;1.98;0.50;;;4.70;99.90;;;;;;6740859;88;20160;-79
2021/11/26 21:15:40;;;;;;;0.90;0.30;;;4.60;99.90;;;;;;6740812;88;20177;-79
2021/11/26 21:25:41;;;;;;;0.75;0.28;;;4.60;99.90;;;;;;6745655;88;20204;-80
2021/11/26 21:35:42;;;;;;;1.08;0.28;;;4.50;99.90;;;;;;6743987;88;20302;-79
2021/11/26 21:45:43;;;;;;;0.47;0.20;;;4.60;99.90;;;;;;6740236;88;20202;-79
2021/11/26 21:55:44;;;;;;;0.80;0.30;;;4.60;99.90;;;;;;6743716;88;20620;-80
2021/11/26 22:05:45;;;;;;;0.55;0.30;;;4.60;99.90;;;;;;6743039;88;20529;-80
2021/11/26 22:15:49;;;;;;;1.35;0.40;;;4.60;99.90;;;;;;6742647;88;20204;-80
2021/11/26 22:25:52;;;;;;;1.02;0.20;;;4.60;99.90;;;;;;6747164;88;20203;-80
2021/11/26 22:35:52;;;;;;;0.30;0.13;;;4.60;99.90;;;;;;6736393;88;20223;-78
2021/11/26 22:45:53;;;;;;;0.93;0.30;;;4.50;99.90;;;;;;6735540;88;20333;-78
2021/11/26 22:55:54;;;;;;;0.60;0.20;;;4.50;99.90;;;;;;6736015;88;20213;-79
2021/11/26 23:05:56;;;;;;;0.35;0.20;;;4.50;99.90;;;;;;6731190;88;20225;-77
2021/11/26 23:16:00;;;;;;;0.55;0.20;;;4.60;99.90;;;;;;6730048;88;20533;-76
2021/11/26 23:26:01;;;;;;;0.30;0.10;;;4.50;99.90;;;;;;6728378;88;20190;-77
2021/11/26 23:36:03;;;;;;;0.47;0.20;;;4.50;99.90;;;;;;6727390;88;20215;-77
2021/11/26 23:46:05;;;;;;;0.60;0.20;;;4.50;99.90;;;;;;6723667;88;20205;-77
2021/11/26 23:56:06;;;;;;;0.32;0.20;;;4.50;99.90;;;;;;6728011;88;20216;-77
